sensor_id;sensor_type;location;lat;lon;timestamp;temperature;humidity
77305;DHT22;66364;52.622;7.746;2023-07-24T00:01:35;18.70;99.90
77305;DHT22;66364;52.622;7.746;2023-07-24T00:03:36;18.60;99.90
77305;DHT22;66364;52.622;7.746;2023-07-24T00:05:58;18.50;99.90
77305;DHT22;66364;52.622;7.746;2023-07-24T00:07:59;18.50;99.90
77305;DHT22;66364;52.622;7.746;2023-07-24T00:10:13;18.60;99.90
77305;DHT22;66364;52.622;7.746;2023-07-24T00:12:13;18.60;99.90
77305;DHT22;66364;52.622;7.746;2023-07-24T00:14:16;18.60;99.90
77305;DHT22;66364;52.622;7.746;2023-07-24T00:16:16;18.60;99.90
77305;DHT22;66364;52.622;7.746;2023-07-24T00:18:17;18.80;99.90
77305;DHT22;66364;52.622;7.746;2023-07-24T00:20:18;18.60;99.90
77305;DHT22;66364;52.622;7.746;2023-07-24T00:22:19;18.40;99.90
77305;DHT22;66364;52.622;7.746;2023-07-24T00:24:20;18.50;99.90
77305;DHT22;66364;52.622;7.746;2023-07-24T00:26:21;18.50;99.90
77305;DHT22;66364;52.622;7.746;2023-07-24T00:28:22;18.50;99.90
77305;DHT22;66364;52.622;7.746;2023-07-24T00:30:22;18.50;99.90
77305;DHT22;66364;52.622;7.746;2023-07-24T00:32:24;18.70;99.90
77305;DHT22;66364;52.622;7.746;2023-07-24T00:34:25;18.60;99.90
77305;DHT22;66364;52.622;7.746;2023-07-24T00:36:26;18.60;99.90
77305;DHT22;66364;52.622;7.746;2023-07-24T00:39:01;18.60;99.90
77305;DHT22;66364;52.622;7.746;2023-07-24T00:41:02;18.50;99.90
77305;DHT22;66364;52.622;7.746;2023-07-24T00:43:03;18.70;99.90
77305;DHT22;66364;52.622;7.746;2023-07-24T00:45:05;18.50;99.90
77305;DHT22;66364;52.622;7.746;2023-07-24T00:47:06;18.50;99.90
77305;DHT22;66364;52.622;7.746;2023-07-24T00:49:08;18.30;99.90
77305;DHT22;66364;52.622;7.746;2023-07-24T00:51:09;18.60;99.90
77305;DHT22;66364;52.622;7.746;2023-07-24T00:53:11;18.50;99.90
77305;DHT22;66364;52.622;7.746;2023-07-24T00:55:13;18.50;99.90
77305;DHT22;66364;52.622;7.746;2023-07-24T00:57:18;18.60;99.90
77305;DHT22;66364;52.622;7.746;2023-07-24T00:59:19;18.50;99.90
77305;DHT22;66364;52.622;7.746;2023-07-24T01:01:20;18.30;99.90
77305;DHT22;66364;52.622;7.746;2023-07-24T01:03:23;18.60;99.90
77305;DHT22;66364;52.622;7.746;2023-07-24T01:05:26;18.50;99.90
77305;DHT22;66364;52.622;7.746;2023-07-24T01:07:27;18.60;99.90
77305;DHT22;66364;52.622;7.746;2023-07-24T01:09:28;18.50;99.90
77305;DHT22;66364;52.622;7.746;2023-07-24T01:11:41;18.50;99.90
77305;DHT22;66364;52.622;7.746;2023-07-24T01:13:51;18.70;99.90
77305;DHT22;66364;52.622;7.746;2023-07-24T01:15:54;18.50;99.90
77305;DHT22;66364;52.622;7.746;2023-07-24T01:18:03;18.70;99.90
77305;DHT22;66364;52.622;7.746;2023-07-24T01:20:02;18.50;99.90
77305;DHT22;66364;52.622;7.746;2023-07-24T01:24:36;18.50;99.90
77305;DHT22;66364;52.622;7.746;2023-07-24T01:26:38;18.70;99.90
77305;DHT22;66364;52.622;7.746;2023-07-24T01:28:39;18.40;99.90
77305;DHT22;66364;52.622;7.746;2023-07-24T01:30:47;18.60;99.90
77305;DHT22;66364;52.622;7.746;2023-07-24T01:32:48;18.40;99.90
77305;DHT22;66364;52.622;7.746;2023-07-24T01:34:51;18.40;99.90
77305;DHT22;66364;52.622;7.746;2023-07-24T01:36:52;18.40;99.90
77305;DHT22;66364;52.622;7.746;2023-07-24T01:38:53;18.20;99.90
77305;DHT22;66364;52.622;7.746;2023-07-24T01:40:56;18.20;99.90
77305;DHT22;66364;52.622;7.746;2023-07-24T01:42:57;18.30;99.90
77305;DHT22;66364;52.622;7.746;2023-07-24T01:44:58;18.20;99.90
77305;DHT22;66364;52.622;7.746;2023-07-24T01:46:59;18.10;99.90
77305;DHT22;66364;52.622;7.746;2023-07-24T01:49:00;18.50;99.90
77305;DHT22;66364;52.622;7.746;2023-07-24T01:51:01;18.00;99.90
77305;DHT22;66364;52.622;7.746;2023-07-24T01:53:02;18.10;99.90
77305;DHT22;66364;52.622;7.746;2023-07-24T01:55:06;18.10;99.90
77305;DHT22;66364;52.622;7.746;2023-07-24T01:57:07;18.10;99.90
77305;DHT22;66364;52.622;7.746;2023-07-24T01:59:07;18.10;99.90
77305;DHT22;66364;52.622;7.746;2023-07-24T02:01:08;18.20;99.90
77305;DHT22;66364;52.622;7.746;2023-07-24T02:03:09;18.10;99.90
77305;DHT22;66364;52.622;7.746;2023-07-24T02:05:11;18.10;99.90
77305;DHT22;66364;52.622;7.746;2023-07-24T02:07:11;18.10;99.90
77305;DHT22;66364;52.622;7.746;2023-07-24T02:09:13;18.20;99.90
77305;DHT22;66364;52.622;7.746;2023-07-24T02:11:16;18.20;99.90
77305;DHT22;66364;52.622;7.746;2023-07-24T02:13:17;18.20;99.90
77305;DHT22;66364;52.622;7.746;2023-07-24T02:15:17;18.00;99.90
77305;DHT22;66364;52.622;7.746;2023-07-24T02:17:19;18.10;99.90
77305;DHT22;66364;52.622;7.746;2023-07-24T02:19:20;18.10;99.90
77305;DHT22;66364;52.622;7.746;2023-07-24T02:21:27;18.20;99.90
77305;DHT22;66364;52.622;7.746;2023-07-24T02:23:34;18.00;99.90
77305;DHT22;66364;52.622;7.746;2023-07-24T02:25:36;18.10;99.90
77305;DHT22;66364;52.622;7.746;2023-07-24T02:27:37;18.10;99.90
77305;DHT22;66364;52.622;7.746;2023-07-24T02:29:38;17.90;99.90
77305;DHT22;66364;52.622;7.746;2023-07-24T02:31:39;18.00;99.90
77305;DHT22;66364;52.622;7.746;2023-07-24T02:33:40;17.90;99.90
77305;DHT22;66364;52.622;7.746;2023-07-24T02:35:41;18.20;99.90
77305;DHT22;66364;52.622;7.746;2023-07-24T02:37:42;18.00;99.90
77305;DHT22;66364;52.622;7.746;2023-07-24T02:39:51;17.90;99.90
77305;DHT22;66364;52.622;7.746;2023-07-24T02:41:52;17.90;99.90
77305;DHT22;66364;52.622;7.746;2023-07-24T02:43:53;18.00;99.90
77305;DHT22;66364;52.622;7.746;2023-07-24T02:45:54;18.00;99.90
77305;DHT22;66364;52.622;7.746;2023-07-24T02:47:55;17.80;99.90
77305;DHT22;66364;52.622;7.746;2023-07-24T02:49:56;17.80;99.90
77305;DHT22;66364;52.622;7.746;2023-07-24T02:51:57;17.80;99.90
77305;DHT22;66364;52.622;7.746;2023-07-24T02:53:57;17.80;99.90
77305;DHT22;66364;52.622;7.746;2023-07-24T02:56:01;17.60;99.90
77305;DHT22;66364;52.622;7.746;2023-07-24T02:58:02;17.80;99.90
77305;DHT22;66364;52.622;7.746;2023-07-24T03:00:05;17.60;99.90
77305;DHT22;66364;52.622;7.746;2023-07-24T03:02:06;18.20;99.90
77305;DHT22;66364;52.622;7.746;2023-07-24T03:04:07;17.60;99.90
77305;DHT22;66364;52.622;7.746;2023-07-24T03:06:08;18.10;99.90
77305;DHT22;66364;52.622;7.746;2023-07-24T03:08:09;18.00;99.90
77305;DHT22;66364;52.622;7.746;2023-07-24T03:10:10;17.90;99.90
77305;DHT22;66364;52.622;7.746;2023-07-24T03:12:11;17.90;99.90
77305;DHT22;66364;52.622;7.746;2023-07-24T03:14:12;18.10;99.90
77305;DHT22;66364;52.622;7.746;2023-07-24T03:16:14;17.90;99.90
77305;DHT22;66364;52.622;7.746;2023-07-24T03:18:15;17.90;99.90
77305;DHT22;66364;52.622;7.746;2023-07-24T03:20:18;17.80;99.90
77305;DHT22;66364;52.622;7.746;2023-07-24T03:22:19;17.80;99.90
77305;DHT22;66364;52.622;7.746;2023-07-24T03:24:20;18.00;99.90
77305;DHT22;66364;52.622;7.746;2023-07-24T03:26:21;17.60;99.90
77305;DHT22;66364;52.622;7.746;2023-07-24T03:28:22;17.80;99.90
77305;DHT22;66364;52.622;7.746;2023-07-24T03:30:23;17.80;99.90
77305;DHT22;66364;52.622;7.746;2023-07-24T03:32:24;17.80;99.90
77305;DHT22;66364;52.622;7.746;2023-07-24T03:34:25;17.80;99.90
77305;DHT22;66364;52.622;7.746;2023-07-24T03:36:26;17.70;99.90
77305;DHT22;66364;52.622;7.746;2023-07-24T03:38:27;17.80;99.90
77305;DHT22;66364;52.622;7.746;2023-07-24T03:40:30;17.70;99.90
77305;DHT22;66364;52.622;7.746;2023-07-24T03:42:31;18.00;99.90
77305;DHT22;66364;52.622;7.746;2023-07-24T03:44:32;17.60;99.90
77305;DHT22;66364;52.622;7.746;2023-07-24T03:46:36;17.80;99.90
77305;DHT22;66364;52.622;7.746;2023-07-24T03:48:37;17.80;99.90
77305;DHT22;66364;52.622;7.746;2023-07-24T03:50:40;17.90;99.90
77305;DHT22;66364;52.622;7.746;2023-07-24T03:52:40;17.90;99.90
77305;DHT22;66364;52.622;7.746;2023-07-24T03:54:41;18.10;99.90
77305;DHT22;66364;52.622;7.746;2023-07-24T03:56:43;17.90;99.90
77305;DHT22;66364;52.622;7.746;2023-07-24T03:58:45;17.90;99.90
77305;DHT22;66364;52.622;7.746;2023-07-24T04:00:46;17.90;99.90
77305;DHT22;66364;52.622;7.746;2023-07-24T04:02:47;18.00;99.90
77305;DHT22;66364;52.622;7.746;2023-07-24T04:04:48;17.80;99.90
77305;DHT22;66364;52.622;7.746;2023-07-24T04:06:49;18.00;99.90
77305;DHT22;66364;52.622;7.746;2023-07-24T04:08:50;18.00;99.90
77305;DHT22;66364;52.622;7.746;2023-07-24T04:10:51;18.00;99.90
77305;DHT22;66364;52.622;7.746;2023-07-24T04:12:52;18.00;99.90
77305;DHT22;66364;52.622;7.746;2023-07-24T04:14:53;18.00;99.90
77305;DHT22;66364;52.622;7.746;2023-07-24T04:16:54;17.90;99.90
77305;DHT22;66364;52.622;7.746;2023-07-24T04:18:55;18.00;99.90
77305;DHT22;66364;52.622;7.746;2023-07-24T04:20:56;18.20;99.90
77305;DHT22;66364;52.622;7.746;2023-07-24T04:22:57;18.10;99.90
77305;DHT22;66364;52.622;7.746;2023-07-24T04:24:57;18.10;99.90
77305;DHT22;66364;52.622;7.746;2023-07-24T04:26:59;18.10;99.90
77305;DHT22;66364;52.622;7.746;2023-07-24T04:29:00;18.10;99.90
77305;DHT22;66364;52.622;7.746;2023-07-24T04:31:00;18.20;99.90
77305;DHT22;66364;52.622;7.746;2023-07-24T04:33:02;18.20;99.90
77305;DHT22;66364;52.622;7.746;2023-07-24T04:35:03;18.10;99.90
77305;DHT22;66364;52.622;7.746;2023-07-24T04:37:04;18.10;99.90
77305;DHT22;66364;52.622;7.746;2023-07-24T04:39:05;18.00;99.90
77305;DHT22;66364;52.622;7.746;2023-07-24T04:41:06;18.10;99.90
77305;DHT22;66364;52.622;7.746;2023-07-24T04:43:07;18.00;99.90
77305;DHT22;66364;52.622;7.746;2023-07-24T04:45:09;18.10;99.90
77305;DHT22;66364;52.622;7.746;2023-07-24T04:47:10;18.10;99.90
77305;DHT22;66364;52.622;7.746;2023-07-24T04:49:13;18.10;99.90
77305;DHT22;66364;52.622;7.746;2023-07-24T04:51:14;18.10;99.90
77305;DHT22;66364;52.622;7.746;2023-07-24T04:53:16;18.20;99.90
77305;DHT22;66364;52.622;7.746;2023-07-24T04:55:16;18.20;99.90
77305;DHT22;66364;52.622;7.746;2023-07-24T04:57:19;17.90;99.90
77305;DHT22;66364;52.622;7.746;2023-07-24T04:59:22;18.10;99.90
77305;DHT22;66364;52.622;7.746;2023-07-24T05:01:23;18.10;99.90
77305;DHT22;66364;52.622;7.746;2023-07-24T05:03:26;18.00;99.90
77305;DHT22;66364;52.622;7.746;2023-07-24T05:05:29;18.10;99.90
77305;DHT22;66364;52.622;7.746;2023-07-24T05:07:31;18.10;99.90
77305;DHT22;66364;52.622;7.746;2023-07-24T05:09:34;18.10;99.90
77305;DHT22;66364;52.622;7.746;2023-07-24T05:11:37;18.10;99.90
77305;DHT22;66364;52.622;7.746;2023-07-24T05:13:39;18.00;99.90
77305;DHT22;66364;52.622;7.746;2023-07-24T05:15:42;18.10;99.90
77305;DHT22;66364;52.622;7.746;2023-07-24T05:17:45;18.30;99.90
77305;DHT22;66364;52.622;7.746;2023-07-24T05:19:46;17.90;99.90
77305;DHT22;66364;52.622;7.746;2023-07-24T05:21:48;18.20;99.90
77305;DHT22;66364;52.622;7.746;2023-07-24T05:23:51;18.00;99.90
77305;DHT22;66364;52.622;7.746;2023-07-24T05:26:03;18.10;99.90
77305;DHT22;66364;52.622;7.746;2023-07-24T05:28:06;18.00;99.90
77305;DHT22;66364;52.622;7.746;2023-07-24T05:30:09;17.90;99.90
77305;DHT22;66364;52.622;7.746;2023-07-24T05:32:11;18.10;99.90
77305;DHT22;66364;52.622;7.746;2023-07-24T05:34:14;18.00;99.90
77305;DHT22;66364;52.622;7.746;2023-07-24T05:36:16;18.30;99.90
77305;DHT22;66364;52.622;7.746;2023-07-24T05:38:19;17.80;99.90
77305;DHT22;66364;52.622;7.746;2023-07-24T05:40:21;18.00;99.90
77305;DHT22;66364;52.622;7.746;2023-07-24T05:42:24;18.00;99.90
77305;DHT22;66364;52.622;7.746;2023-07-24T05:44:27;17.90;99.90
77305;DHT22;66364;52.622;7.746;2023-07-24T05:46:36;17.80;99.90
77305;DHT22;66364;52.622;7.746;2023-07-24T05:48:39;18.00;99.90
77305;DHT22;66364;52.622;7.746;2023-07-24T05:50:39;18.00;99.90
77305;DHT22;66364;52.622;7.746;2023-07-24T05:52:40;17.90;99.90
77305;DHT22;66364;52.622;7.746;2023-07-24T05:54:43;17.90;99.90
77305;DHT22;66364;52.622;7.746;2023-07-24T05:56:44;17.90;99.90
77305;DHT22;66364;52.622;7.746;2023-07-24T05:58:45;17.90;99.90
77305;DHT22;66364;52.622;7.746;2023-07-24T06:00:46;17.90;99.90
77305;DHT22;66364;52.622;7.746;2023-07-24T06:02:46;18.10;99.90
77305;DHT22;66364;52.622;7.746;2023-07-24T06:04:48;17.90;99.90
77305;DHT22;66364;52.622;7.746;2023-07-24T06:06:49;17.80;99.90
77305;DHT22;66364;52.622;7.746;2023-07-24T06:08:51;18.10;99.90
77305;DHT22;66364;52.622;7.746;2023-07-24T06:10:51;17.50;99.90
77305;DHT22;66364;52.622;7.746;2023-07-24T06:12:52;17.70;99.90
77305;DHT22;66364;52.622;7.746;2023-07-24T06:14:53;17.80;99.90
77305;DHT22;66364;52.622;7.746;2023-07-24T06:16:55;17.70;99.90
77305;DHT22;66364;52.622;7.746;2023-07-24T06:18:56;17.90;99.90
77305;DHT22;66364;52.622;7.746;2023-07-24T06:20:57;17.80;99.90
77305;DHT22;66364;52.622;7.746;2023-07-24T06:22:58;17.70;99.90
77305;DHT22;66364;52.622;7.746;2023-07-24T06:24:59;17.70;99.90
77305;DHT22;66364;52.622;7.746;2023-07-24T06:27:03;17.70;99.90
77305;DHT22;66364;52.622;7.746;2023-07-24T06:29:04;17.70;99.90
77305;DHT22;66364;52.622;7.746;2023-07-24T06:31:05;17.70;99.90
77305;DHT22;66364;52.622;7.746;2023-07-24T06:33:07;18.00;99.90
77305;DHT22;66364;52.622;7.746;2023-07-24T06:35:08;17.70;99.90
77305;DHT22;66364;52.622;7.746;2023-07-24T06:37:09;17.80;99.90
77305;DHT22;66364;52.622;7.746;2023-07-24T06:39:10;17.80;99.90
77305;DHT22;66364;52.622;7.746;2023-07-24T06:41:11;17.80;99.90
77305;DHT22;66364;52.622;7.746;2023-07-24T06:43:12;17.80;99.90
77305;DHT22;66364;52.622;7.746;2023-07-24T06:45:14;17.80;99.90
77305;DHT22;66364;52.622;7.746;2023-07-24T06:47:15;17.90;99.90
77305;DHT22;66364;52.622;7.746;2023-07-24T06:49:16;17.90;99.90
77305;DHT22;66364;52.622;7.746;2023-07-24T06:51:32;17.90;99.90
77305;DHT22;66364;52.622;7.746;2023-07-24T06:53:33;17.90;99.90
77305;DHT22;66364;52.622;7.746;2023-07-24T06:55:34;18.10;99.90
77305;DHT22;66364;52.622;7.746;2023-07-24T06:57:41;18.00;99.90
77305;DHT22;66364;52.622;7.746;2023-07-24T06:59:42;18.00;99.90
77305;DHT22;66364;52.622;7.746;2023-07-24T07:02:13;18.10;99.90
77305;DHT22;66364;52.622;7.746;2023-07-24T07:04:14;17.80;99.90
77305;DHT22;66364;52.622;7.746;2023-07-24T07:06:16;18.00;99.90
77305;DHT22;66364;52.622;7.746;2023-07-24T07:08:18;17.80;99.90
77305;DHT22;66364;52.622;7.746;2023-07-24T07:10:22;17.90;99.90
77305;DHT22;66364;52.622;7.746;2023-07-24T07:12:23;18.00;99.90
77305;DHT22;66364;52.622;7.746;2023-07-24T07:14:24;18.00;99.90
77305;DHT22;66364;52.622;7.746;2023-07-24T07:16:26;18.00;99.90
77305;DHT22;66364;52.622;7.746;2023-07-24T07:18:27;17.90;99.90
77305;DHT22;66364;52.622;7.746;2023-07-24T07:20:28;18.00;99.90
77305;DHT22;66364;52.622;7.746;2023-07-24T07:22:29;18.00;99.90
77305;DHT22;66364;52.622;7.746;2023-07-24T07:24:30;18.10;99.90
77305;DHT22;66364;52.622;7.746;2023-07-24T07:26:32;17.90;99.90
77305;DHT22;66364;52.622;7.746;2023-07-24T07:28:34;17.80;99.90
77305;DHT22;66364;52.622;7.746;2023-07-24T07:30:36;17.80;99.90
77305;DHT22;66364;52.622;7.746;2023-07-24T07:32:37;17.80;99.90
77305;DHT22;66364;52.622;7.746;2023-07-24T07:34:38;18.00;99.90
77305;DHT22;66364;52.622;7.746;2023-07-24T07:36:39;18.00;99.90
77305;DHT22;66364;52.622;7.746;2023-07-24T07:38:40;18.00;99.90
77305;DHT22;66364;52.622;7.746;2023-07-24T07:40:41;18.00;99.90
77305;DHT22;66364;52.622;7.746;2023-07-24T07:42:41;18.00;99.90
77305;DHT22;66364;52.622;7.746;2023-07-24T07:44:42;18.40;99.90
77305;DHT22;66364;52.622;7.746;2023-07-24T07:46:43;18.10;99.90
77305;DHT22;66364;52.622;7.746;2023-07-24T07:48:44;18.10;99.90
77305;DHT22;66364;52.622;7.746;2023-07-24T07:50:51;18.00;99.90
77305;DHT22;66364;52.622;7.746;2023-07-24T07:52:52;18.00;99.90
77305;DHT22;66364;52.622;7.746;2023-07-24T07:54:56;18.20;99.90
77305;DHT22;66364;52.622;7.746;2023-07-24T07:56:56;18.10;99.90
77305;DHT22;66364;52.622;7.746;2023-07-24T07:58:57;18.30;99.90
77305;DHT22;66364;52.622;7.746;2023-07-24T08:01:04;18.20;99.90
77305;DHT22;66364;52.622;7.746;2023-07-24T08:03:05;18.30;99.90
77305;DHT22;66364;52.622;7.746;2023-07-24T08:05:10;18.10;99.90
77305;DHT22;66364;52.622;7.746;2023-07-24T08:07:11;18.20;99.90
77305;DHT22;66364;52.622;7.746;2023-07-24T08:09:13;18.40;99.90
77305;DHT22;66364;52.622;7.746;2023-07-24T08:11:14;18.70;99.90
77305;DHT22;66364;52.622;7.746;2023-07-24T08:13:15;18.70;99.90
77305;DHT22;66364;52.622;7.746;2023-07-24T08:15:17;18.80;99.90
77305;DHT22;66364;52.622;7.746;2023-07-24T08:17:18;18.70;99.90
77305;DHT22;66364;52.622;7.746;2023-07-24T08:19:19;18.60;99.90
77305;DHT22;66364;52.622;7.746;2023-07-24T08:21:20;18.60;99.90
77305;DHT22;66364;52.622;7.746;2023-07-24T08:23:21;18.60;99.90
77305;DHT22;66364;52.622;7.746;2023-07-24T08:25:22;18.70;99.90
77305;DHT22;66364;52.622;7.746;2023-07-24T08:27:23;18.80;99.90
77305;DHT22;66364;52.622;7.746;2023-07-24T08:29:31;18.60;99.90
77305;DHT22;66364;52.622;7.746;2023-07-24T08:31:32;18.70;99.90
77305;DHT22;66364;52.622;7.746;2023-07-24T08:33:33;18.90;99.90
77305;DHT22;66364;52.622;7.746;2023-07-24T08:35:35;19.10;99.90
77305;DHT22;66364;52.622;7.746;2023-07-24T08:37:36;18.90;99.90
77305;DHT22;66364;52.622;7.746;2023-07-24T08:39:38;19.10;99.90
77305;DHT22;66364;52.622;7.746;2023-07-24T08:41:39;19.20;99.90
77305;DHT22;66364;52.622;7.746;2023-07-24T08:43:46;19.30;99.90
77305;DHT22;66364;52.622;7.746;2023-07-24T08:45:47;19.70;99.90
77305;DHT22;66364;52.622;7.746;2023-07-24T08:47:49;20.00;99.90
77305;DHT22;66364;52.622;7.746;2023-07-24T08:49:53;19.50;99.90
77305;DHT22;66364;52.622;7.746;2023-07-24T08:51:55;19.90;99.90
77305;DHT22;66364;52.622;7.746;2023-07-24T08:53:57;20.10;99.90
77305;DHT22;66364;52.622;7.746;2023-07-24T08:55:59;20.00;99.90
77305;DHT22;66364;52.622;7.746;2023-07-24T08:58:00;20.10;99.90
77305;DHT22;66364;52.622;7.746;2023-07-24T09:00:02;20.50;99.90
77305;DHT22;66364;52.622;7.746;2023-07-24T09:02:04;20.80;99.90
77305;DHT22;66364;52.622;7.746;2023-07-24T09:04:05;21.10;99.90
77305;DHT22;66364;52.622;7.746;2023-07-24T09:06:06;20.90;99.90
77305;DHT22;66364;52.622;7.746;2023-07-24T09:08:07;20.40;99.90
77305;DHT22;66364;52.622;7.746;2023-07-24T09:10:09;21.10;99.90
77305;DHT22;66364;52.622;7.746;2023-07-24T09:12:12;21.00;99.90
77305;DHT22;66364;52.622;7.746;2023-07-24T09:14:23;20.50;99.90
77305;DHT22;66364;52.622;7.746;2023-07-24T09:16:26;20.60;99.90
77305;DHT22;66364;52.622;7.746;2023-07-24T09:18:39;20.40;99.90
77305;DHT22;66364;52.622;7.746;2023-07-24T09:20:42;20.30;99.90
77305;DHT22;66364;52.622;7.746;2023-07-24T09:22:57;20.20;99.90
77305;DHT22;66364;52.622;7.746;2023-07-24T09:24:58;20.00;99.90
77305;DHT22;66364;52.622;7.746;2023-07-24T09:26:59;20.00;99.90
77305;DHT22;66364;52.622;7.746;2023-07-24T09:29:00;19.90;99.90
77305;DHT22;66364;52.622;7.746;2023-07-24T09:31:02;20.10;99.90
77305;DHT22;66364;52.622;7.746;2023-07-24T09:33:04;20.10;99.90
77305;DHT22;66364;52.622;7.746;2023-07-24T09:35:21;20.60;99.90
77305;DHT22;66364;52.622;7.746;2023-07-24T09:37:27;21.30;99.90
77305;DHT22;66364;52.622;7.746;2023-07-24T09:39:31;21.60;99.90
77305;DHT22;66364;52.622;7.746;2023-07-24T09:41:32;21.90;99.90
77305;DHT22;66364;52.622;7.746;2023-07-24T09:43:33;22.20;99.90
77305;DHT22;66364;52.622;7.746;2023-07-24T09:45:41;22.60;99.90
77305;DHT22;66364;52.622;7.746;2023-07-24T09:47:43;22.60;99.90
77305;DHT22;66364;52.622;7.746;2023-07-24T09:50:00;22.30;99.90
77305;DHT22;66364;52.622;7.746;2023-07-24T09:52:04;22.00;99.90
77305;DHT22;66364;52.622;7.746;2023-07-24T09:54:15;21.60;99.90
77305;DHT22;66364;52.622;7.746;2023-07-24T09:56:19;21.10;99.90
77305;DHT22;66364;52.622;7.746;2023-07-24T09:58:23;21.10;99.90
77305;DHT22;66364;52.622;7.746;2023-07-24T10:00:25;20.40;99.90
77305;DHT22;66364;52.622;7.746;2023-07-24T10:02:29;21.00;99.90
77305;DHT22;66364;52.622;7.746;2023-07-24T10:04:32;21.80;99.90
77305;DHT22;66364;52.622;7.746;2023-07-24T10:06:40;22.60;99.90
77305;DHT22;66364;52.622;7.746;2023-07-24T10:08:45;22.50;99.90
77305;DHT22;66364;52.622;7.746;2023-07-24T10:10:46;22.40;99.90
77305;DHT22;66364;52.622;7.746;2023-07-24T10:12:48;22.50;99.90
77305;DHT22;66364;52.622;7.746;2023-07-24T10:14:49;22.80;99.90
77305;DHT22;66364;52.622;7.746;2023-07-24T10:16:51;22.50;99.90
77305;DHT22;66364;52.622;7.746;2023-07-24T10:19:12;22.40;99.90
77305;DHT22;66364;52.622;7.746;2023-07-24T10:21:15;22.10;99.90
77305;DHT22;66364;52.622;7.746;2023-07-24T10:23:16;21.70;99.90
77305;DHT22;66364;52.622;7.746;2023-07-24T10:25:28;21.30;99.90
77305;DHT22;66364;52.622;7.746;2023-07-24T10:27:24;21.10;99.90
77305;DHT22;66364;52.622;7.746;2023-07-24T10:29:26;21.20;99.90
77305;DHT22;66364;52.622;7.746;2023-07-24T10:31:33;21.10;99.90
77305;DHT22;66364;52.622;7.746;2023-07-24T10:33:36;20.80;99.90
77305;DHT22;66364;52.622;7.746;2023-07-24T10:35:45;21.00;99.90
77305;DHT22;66364;52.622;7.746;2023-07-24T10:37:46;21.00;99.90
77305;DHT22;66364;52.622;7.746;2023-07-24T10:39:47;20.90;99.90
77305;DHT22;66364;52.622;7.746;2023-07-24T10:41:47;21.00;99.90
77305;DHT22;66364;52.622;7.746;2023-07-24T10:43:52;21.10;99.90
77305;DHT22;66364;52.622;7.746;2023-07-24T10:45:54;20.90;99.90
77305;DHT22;66364;52.622;7.746;2023-07-24T10:47:55;21.00;99.90
77305;DHT22;66364;52.622;7.746;2023-07-24T10:49:57;20.90;99.90
77305;DHT22;66364;52.622;7.746;2023-07-24T10:52:05;20.90;99.90
77305;DHT22;66364;52.622;7.746;2023-07-24T10:54:06;20.70;99.90
77305;DHT22;66364;52.622;7.746;2023-07-24T10:56:07;20.80;99.90
77305;DHT22;66364;52.622;7.746;2023-07-24T10:58:08;20.70;99.90
77305;DHT22;66364;52.622;7.746;2023-07-24T11:00:11;20.90;99.90
77305;DHT22;66364;52.622;7.746;2023-07-24T11:02:12;21.20;99.90
77305;DHT22;66364;52.622;7.746;2023-07-24T11:04:13;21.10;99.90
77305;DHT22;66364;52.622;7.746;2023-07-24T11:06:17;21.90;99.90
77305;DHT22;66364;52.622;7.746;2023-07-24T11:08:20;22.20;99.90
77305;DHT22;66364;52.622;7.746;2023-07-24T11:10:23;22.30;99.90
77305;DHT22;66364;52.622;7.746;2023-07-24T11:12:24;22.30;99.90
77305;DHT22;66364;52.622;7.746;2023-07-24T11:14:25;22.40;99.90
77305;DHT22;66364;52.622;7.746;2023-07-24T11:16:26;22.30;99.90
77305;DHT22;66364;52.622;7.746;2023-07-24T11:18:27;22.30;99.90
77305;DHT22;66364;52.622;7.746;2023-07-24T11:22:51;23.00;99.90
77305;DHT22;66364;52.622;7.746;2023-07-24T11:24:52;23.50;99.90
77305;DHT22;66364;52.622;7.746;2023-07-24T11:26:53;23.40;99.90
77305;DHT22;66364;52.622;7.746;2023-07-24T11:28:54;23.00;99.90
77305;DHT22;66364;52.622;7.746;2023-07-24T11:31:02;22.80;99.90
77305;DHT22;66364;52.622;7.746;2023-07-24T11:33:12;22.80;99.90
77305;DHT22;66364;52.622;7.746;2023-07-24T11:35:15;23.00;99.90
77305;DHT22;66364;52.622;7.746;2023-07-24T11:37:17;23.50;99.90
77305;DHT22;66364;52.622;7.746;2023-07-24T11:39:23;23.30;99.90
77305;DHT22;66364;52.622;7.746;2023-07-24T11:41:25;23.50;99.90
77305;DHT22;66364;52.622;7.746;2023-07-24T11:43:35;23.20;99.90
77305;DHT22;66364;52.622;7.746;2023-07-24T11:45:42;22.60;99.90
77305;DHT22;66364;52.622;7.746;2023-07-24T11:47:48;22.20;99.90
77305;DHT22;66364;52.622;7.746;2023-07-24T11:50:02;22.30;99.90
77305;DHT22;66364;52.622;7.746;2023-07-24T11:52:03;22.50;99.90
77305;DHT22;66364;52.622;7.746;2023-07-24T11:54:11;22.60;99.90
77305;DHT22;66364;52.622;7.746;2023-07-24T11:56:13;22.50;99.90
77305;DHT22;66364;52.622;7.746;2023-07-24T11:58:16;22.20;99.90
77305;DHT22;66364;52.622;7.746;2023-07-24T12:00:21;22.10;99.90
77305;DHT22;66364;52.622;7.746;2023-07-24T12:02:26;22.10;99.90
77305;DHT22;66364;52.622;7.746;2023-07-24T12:04:30;21.90;99.90
77305;DHT22;66364;52.622;7.746;2023-07-24T12:06:31;21.90;99.90
77305;DHT22;66364;52.622;7.746;2023-07-24T12:08:35;21.70;99.90
77305;DHT22;66364;52.622;7.746;2023-07-24T12:10:46;21.60;99.90
77305;DHT22;66364;52.622;7.746;2023-07-24T12:12:47;21.80;99.90
77305;DHT22;66364;52.622;7.746;2023-07-24T12:14:49;22.10;99.90
77305;DHT22;66364;52.622;7.746;2023-07-24T12:16:50;22.10;99.90
77305;DHT22;66364;52.622;7.746;2023-07-24T12:18:50;21.90;99.90
77305;DHT22;66364;52.622;7.746;2023-07-24T12:20:51;21.70;99.90
77305;DHT22;66364;52.622;7.746;2023-07-24T12:22:52;21.80;99.90
77305;DHT22;66364;52.622;7.746;2023-07-24T12:24:53;21.70;99.90
77305;DHT22;66364;52.622;7.746;2023-07-24T12:26:54;21.70;99.90
77305;DHT22;66364;52.622;7.746;2023-07-24T12:28:55;21.70;99.90
77305;DHT22;66364;52.622;7.746;2023-07-24T12:30:56;21.50;99.90
77305;DHT22;66364;52.622;7.746;2023-07-24T12:32:57;21.50;99.90
77305;DHT22;66364;52.622;7.746;2023-07-24T12:34:59;21.50;99.90
77305;DHT22;66364;52.622;7.746;2023-07-24T12:37:02;21.50;99.90
77305;DHT22;66364;52.622;7.746;2023-07-24T12:39:04;21.60;99.90
77305;DHT22;66364;52.622;7.746;2023-07-24T12:41:05;21.60;99.90
77305;DHT22;66364;52.622;7.746;2023-07-24T12:43:06;21.60;99.90
77305;DHT22;66364;52.622;7.746;2023-07-24T12:45:17;21.70;99.90
77305;DHT22;66364;52.622;7.746;2023-07-24T12:47:20;21.70;99.90
77305;DHT22;66364;52.622;7.746;2023-07-24T12:49:21;21.70;99.90
77305;DHT22;66364;52.622;7.746;2023-07-24T12:51:22;21.30;99.90
77305;DHT22;66364;52.622;7.746;2023-07-24T12:53:23;21.80;99.90
77305;DHT22;66364;52.622;7.746;2023-07-24T12:55:24;21.80;99.90
77305;DHT22;66364;52.622;7.746;2023-07-24T12:57:25;21.60;99.90
77305;DHT22;66364;52.622;7.746;2023-07-24T12:59:26;22.10;99.90